Time;durP1;ratioP1;P1;durP2;ratioP2;P2;SDS_P1;SDS_P2;PMS_P1;PMS_P2;Temp;Humidity;BMP_temperature;BMP_pressure;BME280_temperature;BME280_humidity;BME280_pressure;Samples;Min_cycle;Max_cycle;Signal;HPM_P1;HPM_P2
2022/05/26 00:00:10;;;;;;;4.57;3.23;;;13.10;61.80;;;;;;5050758;28;45790;-61
2022/05/26 00:02:36;;;;;;;9.43;3.67;;;13.00;62.00;;;;;;5050340;28;45904;-62
2022/05/26 00:05:02;;;;;;;6.53;3.20;;;12.90;62.30;;;;;;5049421;28;46381;-63
2022/05/26 00:07:28;;;;;;;4.93;3.70;;;12.80;62.40;;;;;;5048455;28;46600;-62
2022/05/26 00:09:53;;;;;;;7.30;3.60;;;12.80;62.70;;;;;;5046041;28;46553;-62
2022/05/26 00:12:19;;;;;;;6.27;3.90;;;12.70;62.80;;;;;;5051699;28;46559;-61
2022/05/26 00:14:45;;;;;;;5.80;3.33;;;12.70;62.80;;;;;;5044891;28;46782;-62
2022/05/26 00:17:11;;;;;;;7.10;3.83;;;12.60;62.90;;;;;;5049150;28;46414;-62
2022/05/26 00:19:37;;;;;;;5.97;3.47;;;12.60;63.10;;;;;;5045815;28;46363;-61
2022/05/26 00:22:02;;;;;;;5.50;4.40;;;12.50;63.10;;;;;;5047794;28;46702;-61
2022/05/26 00:24:28;;;;;;;6.40;3.70;;;12.40;63.10;;;;;;5050353;28;46572;-61
2022/05/26 00:26:54;;;;;;;7.10;3.97;;;12.40;63.20;;;;;;5043026;28;46406;-61
2022/05/26 00:29:19;;;;;;;6.83;3.97;;;12.40;63.50;;;;;;5050582;28;46685;-62
2022/05/26 00:31:45;;;;;;;8.27;4.47;;;12.20;63.40;;;;;;5045353;28;46346;-62
2022/05/26 00:34:11;;;;;;;7.87;4.17;;;12.20;63.80;;;;;;5054999;28;46440;-61
2022/05/26 00:36:43;;;;;;;8.30;4.30;;;12.10;64.10;;;;;;5049994;28;46491;-62
2022/05/26 00:39:14;;;;;;;5.67;4.07;;;12.00;64.30;;;;;;5054725;28;46310;-61
2022/05/26 00:41:46;;;;;;;7.60;3.97;;;12.00;64.60;;;;;;5048349;28;46389;-61
2022/05/26 00:44:12;;;;;;;14.67;4.27;;;11.90;64.50;;;;;;5057080;28;46667;-61
2022/05/26 00:46:59;;;;;;;11.63;5.30;;;11.90;64.40;;;;;;5057904;28;46421;-61
2022/05/26 00:49:40;;;;;;;12.27;4.70;;;11.90;64.80;;;;;;5051045;28;46637;-60
2022/05/26 00:52:11;;;;;;;8.97;3.87;;;11.80;64.80;;;;;;5057431;28;46365;-61
2022/05/26 00:54:38;;;;;;;6.50;4.20;;;11.80;64.80;;;;;;5055968;28;47268;-60
2022/05/26 00:57:14;;;;;;;9.50;4.33;;;11.80;66.10;;;;;;5052232;28;46382;-62
2022/05/26 01:00:00;;;;;;;6.50;4.37;;;11.70;64.90;;;;;;5052392;28;46423;-62
2022/05/26 01:02:33;;;;;;;5.77;4.20;;;11.70;65.00;;;;;;5047522;28;46460;-60
2022/05/26 01:05:11;;;;;;;8.50;4.70;;;11.70;65.90;;;;;;5056698;28;47296;-62
2022/05/26 01:07:38;;;;;;;6.73;3.90;;;11.70;65.80;;;;;;5048838;28;46505;-63
2022/05/26 01:10:07;;;;;;;8.57;4.87;;;11.70;64.30;;;;;;5057500;28;46415;-62
2022/05/26 01:12:33;;;;;;;6.90;4.40;;;11.80;64.50;;;;;;5049599;28;46515;-63
2022/05/26 01:15:12;;;;;;;7.73;4.20;;;11.80;64.10;;;;;;5051746;28;47113;-62
2022/05/26 01:17:50;;;;;;;7.53;4.50;;;11.90;63.80;;;;;;5051830;28;46649;-60
2022/05/26 01:20:31;;;;;;;6.40;4.03;;;12.00;63.50;;;;;;5051783;28;46065;-60
2022/05/26 01:23:15;;;;;;;12.60;4.73;;;12.00;63.50;;;;;;5054125;28;46434;-62
2022/05/26 01:26:05;;;;;;;6.03;4.10;;;11.90;63.70;;;;;;5049908;28;46362;-62
2022/05/26 01:29:00;;;;;;;8.93;4.90;;;11.90;64.10;;;;;;5052628;28;45794;-62
2022/05/26 01:31:41;;;;;;;8.07;4.60;;;11.80;64.20;;;;;;5051141;28;46401;-62
2022/05/26 01:34:28;;;;;;;12.73;4.53;;;11.80;64.40;;;;;;5051238;28;46426;-61
2022/05/26 01:37:13;;;;;;;5.30;4.03;;;11.80;64.60;;;;;;5052052;28;46435;-62
2022/05/26 01:39:47;;;;;;;11.37;4.90;;;11.70;64.60;;;;;;5050888;28;46368;-62
2022/05/26 01:42:16;;;;;;;7.17;4.43;;;11.70;64.50;;;;;;5051914;28;46317;-62
2022/05/26 01:44:53;;;;;;;10.00;4.50;;;11.70;64.50;;;;;;5048747;28;46275;-62
2022/05/26 01:47:28;;;;;;;10.20;4.33;;;11.70;64.50;;;;;;5049207;28;46638;-62
2022/05/26 01:50:01;;;;;;;6.27;4.10;;;11.80;64.40;;;;;;5049812;28;46340;-62
2022/05/26 01:52:35;;;;;;;9.53;4.60;;;11.90;64.00;;;;;;5047020;28;46287;-60
2022/05/26 01:55:31;;;;;;;6.33;3.93;;;12.00;63.50;;;;;;5051869;28;46100;-62
2022/05/26 01:58:08;;;;;;;7.00;3.50;;;12.20;63.20;;;;;;5045197;28;47995;-61
2022/05/26 02:00:33;;;;;;;4.77;3.60;;;12.30;62.60;;;;;;5051079;28;46636;-60
2022/05/26 02:03:07;;;;;;;7.60;3.80;;;12.40;62.30;;;;;;5058277;28;46656;-62
2022/05/26 02:05:43;;;;;;;10.53;3.87;;;12.50;62.10;;;;;;5052706;28;46329;-62
2022/05/26 02:08:33;;;;;;;5.83;3.90;;;12.50;61.90;;;;;;5054584;28;46671;-62
2022/05/26 02:11:18;;;;;;;7.13;3.77;;;12.60;62.00;;;;;;5051067;28;46392;-63
2022/05/26 02:13:48;;;;;;;7.60;3.80;;;12.50;61.90;;;;;;5052317;28;46393;-62
2022/05/26 02:16:21;;;;;;;8.60;3.40;;;12.40;62.30;;;;;;5054937;28;46459;-61
2022/05/26 02:19:11;;;;;;;5.57;3.53;;;12.30;62.90;;;;;;5057678;28;46466;-62
2022/05/26 02:21:56;;;;;;;4.90;3.27;;;12.10;63.50;;;;;;5054448;28;46287;-61
2022/05/26 02:24:31;;;;;;;4.40;3.40;;;11.90;65.00;;;;;;5047669;28;46314;-62
2022/05/26 02:26:56;;;;;;;4.60;3.40;;;11.80;64.20;;;;;;5052206;28;46448;-61
2022/05/26 02:32:09;;;;;;;7.83;3.60;;;11.60;64.80;;;;;;5045611;28;46473;-62
2022/05/26 02:34:38;;;;;;;8.80;3.90;;;11.50;65.00;;;;;;5050932;28;46381;-61
2022/05/26 02:37:08;;;;;;;5.80;3.53;;;11.40;65.40;;;;;;5049069;28;46382;-61
2022/05/26 02:39:33;;;;;;;6.93;3.40;;;11.30;65.60;;;;;;5054717;28;46594;-63
2022/05/26 02:42:00;;;;;;;13.43;3.90;;;11.30;65.60;;;;;;5047691;28;46454;-62
2022/05/26 02:44:29;;;;;;;7.03;3.27;;;11.20;66.70;;;;;;5048624;28;46397;-62
2022/05/26 02:47:04;;;;;;;9.00;3.80;;;11.10;65.40;;;;;;5050202;28;46619;-61
2022/05/26 02:49:54;;;;;;;8.77;3.50;;;11.00;65.30;;;;;;5043885;28;47236;-63
2022/05/26 02:52:59;;;;;;;8.90;3.73;;;10.90;65.80;;;;;;5050759;28;45864;-62
2022/05/26 02:55:53;;;;;;;4.83;3.50;;;10.90;65.80;;;;;;5046743;28;46298;-62
2022/05/26 02:58:46;;;;;;;4.90;3.27;;;10.80;65.80;;;;;;5051989;28;46427;-62
2022/05/26 03:01:16;;;;;;;7.13;3.83;;;10.80;65.50;;;;;;5058405;28;47029;-62
2022/05/26 03:03:49;;;;;;;6.53;4.03;;;10.80;65.30;;;;;;5046875;28;46385;-62
2022/05/26 03:06:23;;;;;;;11.47;3.90;;;10.80;65.20;;;;;;5053049;28;46231;-62
2022/05/26 03:08:51;;;;;;;5.70;3.57;;;10.80;65.20;;;;;;5048794;28;46504;-62
2022/05/26 03:11:21;;;;;;;28.17;4.17;;;10.80;65.20;;;;;;5050939;28;46589;-62
2022/05/26 03:13:47;;;;;;;8.50;3.90;;;10.80;65.30;;;;;;5053809;28;46464;-61
2022/05/26 03:16:12;;;;;;;7.63;4.30;;;10.70;65.40;;;;;;5044785;28;46369;-63
2022/05/26 03:18:38;;;;;;;12.33;4.00;;;10.70;65.50;;;;;;5047006;28;46396;-62
2022/05/26 03:21:06;;;;;;;12.07;4.23;;;10.70;65.70;;;;;;5056811;28;47227;-61
2022/05/26 03:23:32;;;;;;;6.87;3.97;;;10.70;65.80;;;;;;5049748;28;46381;-62
2022/05/26 03:25:59;;;;;;;5.10;3.90;;;10.80;65.80;;;;;;5051711;28;46348;-61
2022/05/26 03:28:26;;;;;;;4.27;3.37;;;10.80;66.80;;;;;;5050791;28;46508;-62
2022/05/26 03:30:52;;;;;;;5.87;3.77;;;10.80;65.60;;;;;;5050087;28;46654;-62
2022/05/26 03:33:18;;;;;;;9.30;3.93;;;10.80;65.60;;;;;;5053955;28;46361;-62
2022/05/26 03:41:17;;;;;;;8.30;4.27;;;11.00;65.30;;;;;;5046438;28;46644;-61
2022/05/26 03:43:46;;;;;;;4.53;3.60;;;11.00;65.30;;;;;;5054737;28;46380;-61
2022/05/26 03:46:13;;;;;;;5.80;3.90;;;11.00;65.30;;;;;;5048387;28;46527;-62
2022/05/26 03:48:40;;;;;;;5.90;3.80;;;11.10;65.40;;;;;;5047408;28;46342;-62
2022/05/26 03:51:06;;;;;;;5.77;3.63;;;11.10;65.40;;;;;;5052094;28;46315;-62
2022/05/26 03:53:33;;;;;;;6.77;3.97;;;11.20;65.50;;;;;;5048521;28;45965;-62
2022/05/26 03:55:59;;;;;;;6.63;4.00;;;11.30;65.70;;;;;;5052423;28;46410;-63
2022/05/26 03:58:25;;;;;;;4.23;2.93;;;11.40;65.70;;;;;;5047851;28;46489;-63
2022/05/26 04:00:51;;;;;;;7.67;3.40;;;11.50;65.30;;;;;;5049904;28;46422;-62
2022/05/26 04:03:17;;;;;;;8.80;4.43;;;11.70;64.90;;;;;;5047668;28;46610;-63
2022/05/26 04:05:42;;;;;;;4.80;3.30;;;11.90;64.70;;;;;;5049882;28;45875;-62
2022/05/26 04:08:09;;;;;;;6.30;3.30;;;12.00;64.30;;;;;;5048783;28;46452;-63
2022/05/26 04:10:35;;;;;;;6.03;3.30;;;12.20;64.00;;;;;;5047710;28;46740;-62
2022/05/26 04:13:00;;;;;;;4.27;3.27;;;12.30;63.60;;;;;;5049175;28;46457;-61
2022/05/26 04:15:26;;;;;;;8.07;3.33;;;12.50;63.30;;;;;;5048724;28;46363;-62
2022/05/26 04:17:52;;;;;;;4.50;3.47;;;12.70;63.00;;;;;;5053519;28;46306;-62
2022/05/26 04:20:20;;;;;;;6.47;3.20;;;12.70;62.70;;;;;;5047798;28;46207;-63
2022/05/26 04:22:46;;;;;;;5.33;3.93;;;12.80;62.60;;;;;;5053681;28;46330;-62
2022/05/26 04:25:12;;;;;;;5.80;3.50;;;12.90;62.50;;;;;;5049119;28;45829;-62
2022/05/26 04:27:38;;;;;;;5.57;3.60;;;12.90;62.50;;;;;;5049932;28;46469;-62
2022/05/26 04:30:06;;;;;;;14.00;5.13;;;12.90;62.60;;;;;;5049844;28;48049;-61
2022/05/26 04:32:32;;;;;;;5.13;3.37;;;13.00;62.60;;;;;;5056052;28;46368;-62
2022/05/26 04:34:58;;;;;;;7.70;3.23;;;13.10;62.70;;;;;;5052916;28;46413;-61
2022/05/26 04:37:25;;;;;;;8.63;3.87;;;13.20;62.90;;;;;;5059261;28;46444;-63
2022/05/26 04:39:53;;;;;;;9.30;3.10;;;13.30;62.80;;;;;;5053368;28;46362;-62
2022/05/26 04:42:19;;;;;;;5.87;3.10;;;13.50;62.30;;;;;;5054261;28;46401;-62
2022/05/26 04:44:45;;;;;;;9.43;3.13;;;13.80;62.00;;;;;;5056933;28;46468;-61
2022/05/26 04:47:12;;;;;;;6.27;3.20;;;14.00;61.60;;;;;;5051408;28;46776;-61
2022/05/26 04:49:39;;;;;;;7.80;3.30;;;14.20;61.40;;;;;;5054940;28;46568;-62
2022/05/26 04:52:11;;;;;;;7.93;3.70;;;14.40;61.20;;;;;;5051579;28;46492;-62
2022/05/26 04:54:36;;;;;;;7.30;3.17;;;14.40;60.90;;;;;;5054033;28;46434;-61
2022/05/26 04:57:03;;;;;;;5.17;3.10;;;14.50;60.80;;;;;;5054137;28;46245;-63
2022/05/26 04:59:30;;;;;;;6.10;2.97;;;14.60;60.80;;;;;;5046144;28;47103;-61
2022/05/26 05:01:56;;;;;;;5.70;2.93;;;14.80;60.60;;;;;;5051988;28;46596;-62
2022/05/26 05:04:23;;;;;;;5.57;3.33;;;15.00;60.40;;;;;;5046664;28;46442;-62
2022/05/26 05:06:48;;;;;;;5.30;3.40;;;15.20;60.10;;;;;;5048431;28;46556;-61
2022/05/26 05:09:14;;;;;;;4.23;2.87;;;15.40;59.70;;;;;;5048066;28;46267;-62
2022/05/26 05:11:40;;;;;;;5.17;2.43;;;15.50;59.40;;;;;;5045834;28;46457;-61
2022/05/26 05:14:05;;;;;;;4.37;2.80;;;15.60;59.10;;;;;;5052359;28;46643;-62
2022/05/26 05:16:34;;;;;;;4.43;2.63;;;15.60;59.00;;;;;;5046732;28;45950;-62
2022/05/26 05:19:00;;;;;;;8.23;2.60;;;15.60;58.80;;;;;;5047687;28;46441;-61
2022/05/26 05:21:42;;;;;;;7.00;3.63;;;15.70;58.80;;;;;;5049783;28;46481;-61
2022/05/26 05:24:36;;;;;;;4.80;2.73;;;15.60;58.80;;;;;;5059233;28;46415;-61
2022/05/26 05:27:14;;;;;;;12.30;3.07;;;15.60;58.70;;;;;;5052160;28;46330;-61
2022/05/26 05:29:42;;;;;;;7.60;2.60;;;15.50;59.10;;;;;;5057413;28;46384;-62
2022/05/26 05:32:16;;;;;;;6.10;2.50;;;15.40;59.40;;;;;;5049971;28;46295;-63
2022/05/26 05:34:45;;;;;;;5.50;2.93;;;15.50;59.40;;;;;;5056656;28;46345;-62
2022/05/26 05:37:11;;;;;;;4.00;2.37;;;15.70;58.90;;;;;;5051813;28;45907;-62
2022/05/26 05:39:37;;;;;;;5.80;2.67;;;15.90;58.50;;;;;;5050568;28;46362;-62
2022/05/26 05:42:04;;;;;;;4.83;2.57;;;16.00;58.00;;;;;;5056331;28;46433;-63
2022/05/26 05:44:31;;;;;;;4.80;2.20;;;16.20;57.50;;;;;;5047032;28;46699;-61
2022/05/26 05:46:57;;;;;;;6.60;2.30;;;16.30;57.40;;;;;;5050479;28;46370;-62
2022/05/26 05:49:26;;;;;;;3.70;1.97;;;16.40;57.50;;;;;;5055310;28;46986;-61
2022/05/26 05:51:52;;;;;;;4.53;2.30;;;16.70;57.80;;;;;;5051601;28;46453;-62
2022/05/26 05:54:18;;;;;;;5.07;2.73;;;17.00;57.60;;;;;;5050329;28;46625;-62
2022/05/26 05:56:45;;;;;;;4.03;2.40;;;17.20;57.00;;;;;;5052809;28;46432;-61
2022/05/26 05:59:11;;;;;;;5.93;2.30;;;17.50;56.90;;;;;;5050188;28;47858;-61
2022/05/26 06:01:37;;;;;;;6.20;2.70;;;17.40;56.70;;;;;;5051667;28;46354;-62
2022/05/26 06:04:03;;;;;;;4.60;2.50;;;17.50;56.70;;;;;;5046525;28;46431;-61
2022/05/26 06:06:38;;;;;;;8.40;3.13;;;17.40;56.90;;;;;;5053064;28;46389;-62
2022/05/26 06:09:05;;;;;;;5.17;2.20;;;17.40;56.90;;;;;;5048155;28;46652;-61
2022/05/26 06:11:31;;;;;;;5.03;2.23;;;17.50;56.60;;;;;;5050956;28;46405;-61
2022/05/26 06:13:57;;;;;;;6.63;2.10;;;17.80;57.80;;;;;;5050874;28;46282;-61
2022/05/26 06:16:23;;;;;;;5.23;2.40;;;18.10;59.10;;;;;;5047740;28;46583;-62
2022/05/26 06:18:50;;;;;;;6.30;1.93;;;18.50;58.90;;;;;;5053389;28;46435;-62
2022/05/26 06:21:16;;;;;;;5.67;2.03;;;18.70;58.50;;;;;;5047259;28;46424;-62
2022/05/26 06:23:42;;;;;;;8.43;2.10;;;19.00;57.60;;;;;;5052546;28;46577;-62
2022/05/26 06:26:08;;;;;;;7.23;2.10;;;19.20;56.70;;;;;;5050466;28;46418;-62
2022/05/26 06:31:20;;;;;;;9.80;2.77;;;19.40;54.70;;;;;;5046619;28;46620;-61
2022/05/26 06:39:15;;;;;;;3.77;1.93;;;19.70;51.40;;;;;;5047048;28;46358;-62
2022/05/26 06:44:24;;;;;;;3.80;1.97;;;19.80;50.00;;;;;;5049186;28;46367;-62
2022/05/26 06:46:50;;;;;;;4.67;1.70;;;20.00;48.90;;;;;;5047299;28;46735;-61
2022/05/26 06:49:16;;;;;;;4.43;1.73;;;20.30;47.90;;;;;;5047836;28;48314;-63
2022/05/26 06:51:43;;;;;;;6.00;1.80;;;20.50;46.90;;;;;;5048577;28;46409;-62
2022/05/26 06:54:10;;;;;;;17.20;1.60;;;20.70;45.10;;;;;;5047857;28;46361;-61
2022/05/26 06:56:35;;;;;;;4.50;1.73;;;20.80;44.50;;;;;;5050253;28;46469;-61
2022/05/26 06:59:01;;;;;;;4.50;1.83;;;21.00;43.90;;;;;;5047293;28;46427;-62
2022/05/26 07:01:26;;;;;;;3.90;1.60;;;21.00;43.40;;;;;;5046636;28;46563;-61
2022/05/26 07:03:52;;;;;;;8.57;1.83;;;21.00;43.20;;;;;;5048839;28;46514;-60
2022/05/26 07:06:24;;;;;;;2.87;1.20;;;20.90;43.00;;;;;;5057457;28;46719;-61
2022/05/26 07:08:50;;;;;;;3.60;1.30;;;20.90;42.10;;;;;;5049743;28;46418;-61
2022/05/26 07:11:17;;;;;;;3.17;1.53;;;21.00;41.80;;;;;;5053970;28;46528;-61
2022/05/26 07:13:44;;;;;;;7.43;1.50;;;21.10;40.60;;;;;;5052545;28;46803;-62
2022/05/26 07:16:10;;;;;;;3.00;1.50;;;21.00;40.50;;;;;;5050013;28;46420;-62
2022/05/26 07:18:37;;;;;;;6.30;1.80;;;20.80;40.90;;;;;;5048417;28;46647;-61
2022/05/26 07:21:06;;;;;;;9.40;1.37;;;20.70;41.30;;;;;;5046301;28;46374;-62
2022/05/26 07:23:33;;;;;;;3.70;1.67;;;20.60;41.00;;;;;;5051082;28;46383;-62
2022/05/26 07:25:59;;;;;;;5.40;1.57;;;20.50;41.10;;;;;;5048782;28;45974;-62
2022/05/26 07:28:24;;;;;;;4.60;1.57;;;20.40;40.80;;;;;;5046677;28;46681;-62
2022/05/26 07:30:52;;;;;;;5.23;1.50;;;20.60;40.50;;;;;;5050951;28;46347;-62
2022/05/26 07:33:18;;;;;;;7.30;1.40;;;20.70;39.90;;;;;;5046217;28;46385;-61
2022/05/26 07:35:44;;;;;;;3.57;1.40;;;20.50;39.50;;;;;;5050160;28;46578;-61
2022/05/26 07:43:40;;;;;;;4.73;1.23;;;20.50;38.10;;;;;;5050157;28;46378;-61
2022/05/26 07:46:06;;;;;;;2.83;1.17;;;20.20;38.10;;;;;;5043637;28;46685;-61
2022/05/26 07:48:32;;;;;;;4.10;1.10;;;20.20;37.80;;;;;;5049055;28;46628;-61
2022/05/26 07:50:57;;;;;;;4.40;1.57;;;20.10;38.30;;;;;;5060100;28;46338;-61
2022/05/26 07:53:23;;;;;;;3.07;1.43;;;20.10;38.10;;;;;;5053544;28;46714;-61
2022/05/26 07:55:49;;;;;;;8.70;1.50;;;20.30;38.10;;;;;;5057904;28;46503;-61
2022/05/26 07:58:14;;;;;;;3.60;1.20;;;20.40;37.60;;;;;;5059136;28;47285;-59
2022/05/26 08:00:41;;;;;;;2.20;0.90;;;20.60;37.10;;;;;;5049452;28;46437;-62
2022/05/26 08:03:07;;;;;;;6.10;1.40;;;20.50;36.60;;;;;;5056906;28;46569;-61
2022/05/26 08:05:34;;;;;;;7.63;1.43;;;20.30;35.80;;;;;;5054572;28;46325;-61
2022/05/26 08:07:59;;;;;;;3.93;1.30;;;20.20;36.70;;;;;;5052977;28;46457;-61
2022/05/26 08:10:25;;;;;;;3.07;1.10;;;20.30;36.50;;;;;;5058839;28;46405;-62
2022/05/26 08:12:51;;;;;;;3.13;1.20;;;20.40;36.60;;;;;;5047895;28;46227;-62
2022/05/26 08:15:16;;;;;;;2.70;1.13;;;20.60;36.30;;;;;;5055976;28;46052;-61
2022/05/26 08:17:42;;;;;;;3.70;1.00;;;20.90;35.70;;;;;;5060188;28;47173;-63
2022/05/26 08:20:08;;;;;;;3.33;1.57;;;21.00;35.20;;;;;;5052424;28;46358;-62
2022/05/26 08:22:34;;;;;;;3.80;1.20;;;20.80;34.80;;;;;;5052967;28;45917;-61
2022/05/26 08:25:00;;;;;;;6.10;1.43;;;20.60;34.80;;;;;;5057648;28;45863;-61
2022/05/26 08:27:26;;;;;;;6.87;1.27;;;20.80;34.90;;;;;;5051112;28;46362;-62
2022/05/26 08:29:54;;;;;;;4.13;1.10;;;21.00;35.00;;;;;;5052073;28;46792;-62
2022/05/26 08:32:21;;;;;;;4.47;1.30;;;21.10;35.00;;;;;;5049294;28;46399;-60
2022/05/26 08:34:47;;;;;;;4.70;1.20;;;21.20;35.20;;;;;;5058263;28;46549;-62
2022/05/26 08:37:19;;;;;;;4.73;1.27;;;21.20;34.90;;;;;;5052105;28;46666;-59
2022/05/26 08:39:46;;;;;;;2.93;1.13;;;20.70;34.70;;;;;;5053680;28;46430;-61
2022/05/26 08:42:21;;;;;;;4.57;1.63;;;20.70;35.40;;;;;;5054293;28;46628;-61
2022/05/26 08:44:48;;;;;;;3.47;1.70;;;20.80;35.00;;;;;;5052780;28;46392;-61
2022/05/26 08:47:23;;;;;;;4.73;2.07;;;21.00;35.00;;;;;;5054151;28;46439;-61
2022/05/26 08:49:52;;;;;;;2.97;1.10;;;21.10;36.30;;;;;;5047484;28;46163;-61
2022/05/26 08:52:30;;;;;;;5.00;1.03;;;21.10;35.00;;;;;;5055533;28;46413;-61
2022/05/26 08:55:28;;;;;;;4.50;1.20;;;20.90;34.00;;;;;;5051445;28;46287;-62
2022/05/26 08:58:06;;;;;;;6.17;1.13;;;20.80;34.80;;;;;;5052986;28;46523;-59
2022/05/26 09:00:33;;;;;;;6.07;1.10;;;20.70;34.70;;;;;;5049987;28;46371;-62
2022/05/26 09:03:00;;;;;;;2.57;1.00;;;21.00;35.00;;;;;;5052528;28;45844;-61
2022/05/26 09:05:37;;;;;;;4.60;1.20;;;21.00;33.00;;;;;;5052218;28;46427;-61
2022/05/26 09:13:49;;;;;;;2.97;1.10;;;21.20;31.80;;;;;;5051201;28;46589;-61
2022/05/26 09:16:15;;;;;;;4.03;1.07;;;20.80;30.90;;;;;;5049902;28;46727;-62
2022/05/26 09:18:41;;;;;;;3.80;1.20;;;21.00;31.30;;;;;;5049590;28;47161;-61
2022/05/26 09:21:24;;;;;;;3.27;1.00;;;21.40;30.50;;;;;;5051748;28;46313;-61
2022/05/26 09:23:50;;;;;;;3.37;1.10;;;21.50;30.70;;;;;;5049172;28;46334;-62
2022/05/26 09:26:19;;;;;;;6.50;1.10;;;21.80;30.40;;;;;;5052486;28;45915;-61
2022/05/26 09:28:52;;;;;;;2.50;1.10;;;22.40;30.70;;;;;;5044688;28;46369;-61
2022/05/26 09:31:33;;;;;;;3.70;1.23;;;22.90;29.50;;;;;;5052194;28;46305;-62
2022/05/26 09:34:02;;;;;;;5.20;1.30;;;23.10;28.30;;;;;;5057743;28;46363;-61
2022/05/26 09:36:31;;;;;;;3.50;1.20;;;23.10;29.30;;;;;;5052285;28;46404;-61
2022/05/26 09:38:58;;;;;;;4.83;1.10;;;23.40;29.10;;;;;;5052304;28;47171;-62
2022/05/26 09:41:24;;;;;;;3.40;1.07;;;23.50;28.90;;;;;;5057303;28;46356;-61
2022/05/26 09:43:58;;;;;;;6.13;1.17;;;23.40;28.00;;;;;;5050237;28;46370;-61
2022/05/26 09:46:26;;;;;;;2.90;0.97;;;22.90;27.90;;;;;;5055960;28;46393;-62
2022/05/26 09:48:58;;;;;;;4.33;1.00;;;22.80;28.00;;;;;;5047384;28;47745;-62
2022/05/26 09:51:27;;;;;;;3.00;1.10;;;22.80;28.30;;;;;;5052057;28;46447;-61
2022/05/26 09:53:54;;;;;;;4.20;1.20;;;22.90;28.50;;;;;;5051528;28;46425;-61
2022/05/26 09:56:47;;;;;;;4.13;1.47;;;22.70;28.00;;;;;;5047609;28;45870;-61
2022/05/26 09:59:42;;;;;;;2.50;1.10;;;22.30;26.80;;;;;;5050055;28;46224;-62
2022/05/26 10:02:13;;;;;;;6.33;2.60;;;22.00;27.90;;;;;;5043203;28;46402;-62
2022/05/26 10:04:57;;;;;;;4.37;1.50;;;21.70;28.10;;;;;;5051921;28;46300;-61
2022/05/26 10:08:11;;;;;;;4.37;1.10;;;21.30;28.40;;;;;;5044143;28;46408;-61
2022/05/26 10:10:47;;;;;;;5.53;1.47;;;21.10;29.00;;;;;;5035597;28;46480;-61
2022/05/26 10:13:27;;;;;;;7.20;1.10;;;21.00;29.30;;;;;;5052498;28;46266;-62
2022/05/26 10:15:58;;;;;;;4.27;1.03;;;21.50;29.90;;;;;;5052403;28;46341;-61
2022/05/26 10:18:47;;;;;;;2.37;1.10;;;22.10;28.90;;;;;;5052038;28;46384;-60
2022/05/26 10:21:34;;;;;;;4.30;0.93;;;22.10;28.40;;;;;;5056487;28;46475;-61
2022/05/26 10:24:27;;;;;;;2.70;1.00;;;22.10;28.50;;;;;;5050472;28;46362;-62
2022/05/26 10:27:14;;;;;;;5.53;1.10;;;22.10;28.10;;;;;;5058386;28;46375;-61
2022/05/26 10:30:10;;;;;;;5.00;1.10;;;22.00;27.90;;;;;;5048657;28;46584;-61
2022/05/26 10:33:17;;;;;;;2.63;1.07;;;22.10;27.80;;;;;;5055098;28;46425;-61
2022/05/26 10:36:19;;;;;;;1.93;0.90;;;22.40;27.80;;;;;;5049117;28;46383;-61
2022/05/26 10:39:07;;;;;;;4.43;1.20;;;22.70;27.70;;;;;;5054275;28;46582;-61
2022/05/26 10:41:57;;;;;;;3.40;1.10;;;22.50;27.60;;;;;;5048586;28;46669;-61
2022/05/26 10:44:58;;;;;;;5.20;1.30;;;22.60;27.30;;;;;;5042444;28;46557;-61
2022/05/26 10:47:44;;;;;;;3.87;1.07;;;22.60;27.80;;;;;;5017106;28;46514;-61
2022/05/26 10:50:16;;;;;;;7.93;1.20;;;23.10;27.40;;;;;;5037854;28;46770;-61
2022/05/26 10:53:06;;;;;;;3.10;1.23;;;23.60;27.20;;;;;;5057154;28;46418;-62
2022/05/26 10:55:46;;;;;;;5.33;1.17;;;23.80;26.80;;;;;;5048275;28;47041;-61
2022/05/26 10:58:20;;;;;;;2.40;0.90;;;23.90;26.00;;;;;;5052137;28;46263;-62
2022/05/26 11:00:52;;;;;;;6.60;1.80;;;23.90;25.90;;;;;;5057070;28;46343;-62
2022/05/26 11:03:40;;;;;;;2.50;1.13;;;23.80;25.20;;;;;;5052018;28;46161;-61
2022/05/26 11:06:20;;;;;;;9.07;1.43;;;23.70;25.30;;;;;;5047190;28;47333;-61
2022/05/26 11:09:02;;;;;;;4.37;1.40;;;23.10;26.40;;;;;;5049084;28;46299;-62
2022/05/26 11:11:40;;;;;;;2.20;1.00;;;22.70;27.40;;;;;;5049299;28;46572;-61
2022/05/26 11:17:33;;;;;;;5.17;1.30;;;23.10;27.80;;;;;;5046145;28;46361;-60
2022/05/26 11:20:12;;;;;;;4.20;1.00;;;23.20;27.20;;;;;;5054103;28;46358;-62
2022/05/26 11:22:41;;;;;;;6.13;1.20;;;23.00;26.80;;;;;;5047827;28;46227;-63
2022/05/26 11:25:07;;;;;;;6.47;1.30;;;23.00;26.90;;;;;;5044989;28;46418;-62
2022/05/26 11:28:05;;;;;;;3.27;1.30;;;23.50;27.00;;;;;;5048045;28;47454;-62
2022/05/26 11:36:34;;;;;;;3.47;1.20;;;24.20;25.40;;;;;;5052523;28;46751;-61
2022/05/26 11:39:01;;;;;;;4.37;1.20;;;24.70;25.70;;;;;;5051142;28;47254;-61
2022/05/26 11:41:36;;;;;;;4.50;1.33;;;24.70;25.60;;;;;;5050353;28;46638;-61
2022/05/26 11:44:05;;;;;;;4.00;1.30;;;24.50;25.20;;;;;;5051579;28;46461;-61
2022/05/26 11:46:43;;;;;;;3.37;1.20;;;24.00;25.30;;;;;;5044623;28;46366;-61
2022/05/26 11:49:43;;;;;;;4.83;1.00;;;23.40;25.50;;;;;;5051355;28;47129;-61
2022/05/26 11:52:27;;;;;;;2.47;1.07;;;23.50;26.00;;;;;;5043895;28;46352;-61
2022/05/26 11:54:52;;;;;;;4.67;1.33;;;23.60;25.40;;;;;;5050129;28;46456;-61
2022/05/26 11:57:33;;;;;;;2.70;1.20;;;23.80;25.10;;;;;;5044062;28;46247;-61
2022/05/26 12:00:14;;;;;;;5.70;1.50;;;23.90;25.20;;;;;;5049747;28;47420;-62
2022/05/26 12:02:41;;;;;;;4.70;1.27;;;24.00;25.30;;;;;;5053168;28;46449;-62
2022/05/26 12:05:43;;;;;;;3.40;1.20;;;24.00;25.30;;;;;;5052133;28;46397;-61
2022/05/26 12:08:29;;;;;;;2.97;1.00;;;23.80;25.10;;;;;;5053789;28;46634;-61
2022/05/26 12:11:02;;;;;;;5.43;1.13;;;24.00;25.30;;;;;;5043224;28;47182;-60
2022/05/26 12:13:32;;;;;;;3.50;1.30;;;23.90;25.20;;;;;;5050811;28;46599;-60
2022/05/26 12:16:09;;;;;;;3.50;1.37;;;23.60;25.00;;;;;;5050326;28;46290;-60
2022/05/26 12:18:58;;;;;;;4.93;1.10;;;23.60;25.00;;;;;;5047243;28;46535;-61
2022/05/26 12:21:29;;;;;;;5.10;1.40;;;23.60;25.00;;;;;;5053130;28;46381;-61
2022/05/26 12:23:57;;;;;;;5.43;1.30;;;23.30;24.90;;;;;;5044039;28;45801;-60
2022/05/26 12:26:51;;;;;;;8.90;1.10;;;23.00;24.90;;;;;;5050519;28;46406;-61
2022/05/26 12:29:48;;;;;;;2.80;1.20;;;23.10;25.90;;;;;;5044286;28;46435;-61
2022/05/26 12:32:21;;;;;;;3.77;1.00;;;23.50;26.10;;;;;;5049039;28;46423;-61
2022/05/26 12:35:18;;;;;;;2.67;1.23;;;23.50;26.50;;;;;;5046474;28;46365;-62
2022/05/26 12:38:22;;;;;;;3.20;1.27;;;23.80;26.30;;;;;;5048101;28;46456;-62
2022/05/26 12:41:18;;;;;;;4.33;1.20;;;24.20;26.00;;;;;;5059701;28;45969;-62
2022/05/26 12:44:02;;;;;;;3.23;1.00;;;24.30;25.50;;;;;;5054726;28;46472;-62
2022/05/26 12:47:11;;;;;;;4.83;1.43;;;24.20;25.40;;;;;;5050314;28;46692;-62
2022/05/26 12:50:04;;;;;;;3.13;1.00;;;23.80;25.70;;;;;;5045464;28;46310;-61
2022/05/26 12:52:36;;;;;;;3.47;1.10;;;23.50;25.50;;;;;;5047512;28;46474;-62
2022/05/26 12:55:19;;;;;;;3.90;1.20;;;24.10;25.30;;;;;;5049378;28;46466;-62
2022/05/26 12:58:01;;;;;;;5.13;1.20;;;24.60;25.10;;;;;;5048278;28;46465;-60
2022/05/26 13:00:36;;;;;;;3.10;1.00;;;24.70;24.20;;;;;;5048133;28;46712;-61
2022/05/26 13:03:16;;;;;;;7.17;1.33;;;24.40;24.30;;;;;;5051137;28;45891;-62
2022/05/26 13:05:51;;;;;;;3.80;1.30;;;24.00;24.60;;;;;;5049533;28;47404;-61
2022/05/26 13:08:20;;;;;;;6.10;1.37;;;23.70;24.80;;;;;;5048882;28;46504;-63
2022/05/26 13:10:47;;;;;;;3.40;1.53;;;23.80;24.30;;;;;;5049513;28;46314;-62
2022/05/26 13:13:34;;;;;;;6.37;1.33;;;23.70;24.20;;;;;;5048528;28;46758;-63
2022/05/26 13:16:27;;;;;;;5.97;1.23;;;23.80;24.20;;;;;;5050622;28;47265;-62
2022/05/26 13:19:07;;;;;;;7.83;1.33;;;23.80;24.20;;;;;;5053718;28;46344;-61
2022/05/26 13:21:32;;;;;;;3.90;1.07;;;24.00;24.00;;;;;;5047396;28;46718;-63
2022/05/26 13:23:58;;;;;;;2.97;1.07;;;24.00;24.10;;;;;;5048191;28;46551;-62
2022/05/26 13:26:24;;;;;;;4.17;1.07;;;23.70;24.50;;;;;;5052148;28;47087;-63
2022/05/26 13:28:57;;;;;;;3.27;1.13;;;23.80;24.60;;;;;;5049898;28;46423;-63
2022/05/26 13:34:11;;;;;;;4.77;1.60;;;23.00;24.50;;;;;;5050433;28;46243;-62
2022/05/26 13:36:47;;;;;;;4.67;1.40;;;22.60;24.30;;;;;;5047041;28;48860;-64
2022/05/26 13:39:14;;;;;;;3.60;1.13;;;22.60;24.80;;;;;;5053141;28;46428;-63
2022/05/26 13:41:43;;;;;;;2.60;1.20;;;22.70;24.50;;;;;;5047835;28;46530;-62
2022/05/26 13:44:13;;;;;;;4.90;1.20;;;23.00;24.50;;;;;;5051379;28;46392;-63
2022/05/26 13:46:46;;;;;;;2.87;1.10;;;23.10;25.10;;;;;;5047828;28;46538;-63
2022/05/26 13:49:17;;;;;;;2.20;0.90;;;22.80;24.40;;;;;;5052422;28;46396;-62
2022/05/26 13:51:46;;;;;;;5.60;1.10;;;22.60;24.30;;;;;;5046697;28;46425;-62
2022/05/26 13:54:35;;;;;;;5.00;1.00;;;22.30;24.10;;;;;;5052659;28;46596;-63
2022/05/26 13:57:09;;;;;;;4.00;1.20;;;22.30;24.10;;;;;;5046689;28;46532;-63